Decoded Metar for MMSP (SAN LUIS POTOSI in MEXICO) (IATA:SLP) | Meteo·Mobile Aviation Weather
aviador You're here:

MMSP Decoded Metar

SAN LUIS POTOSI in MEXICO
Report Time2018-09-18 19:49:00
UTC Time2018-09-18 21:00:11
Flight Rules Old
Wind040° at 10 kt
W.Decomp.*RWY 04: 9.9 kt HW 1.2 kt LCW
RWY 32: 2.9 kt HW 9.6 kt RCW
W.Rank040° ranks 12
Current wind is above 040° avg. (7.7)
Visibility9999 m
Phenomena:N/A
Clouds:Broken TCU 030 Hf
Overcast 080 Hf
Expected CloudBase > 4,000 ft AGL from Temp-Dew spread
Ceiling3,000 ft
Temp23°C (ISA +20)
Dew Point13°C (53% RH)
AAT20.3°C
QNH1023 hPa
Density Alt8,458 ft
Elevation6,243 ft
Report Wrong Elevation
Raw Report
MMSP 181949Z 04010KT 12SM BKN030TCU OVC080 23/13 A3021 RMK 8/23/
LWRVSBY 2 Y 3 QUAD HZY=

Extra information for MMSP:More info

Metar Taf Metar & Taf Last 4 Metars F.Rules Stats Wind Profile Meteogram Temp Stats Airport Information Weather charts Add Link Nearby VenuesMetar ALERT Operation Metar Decoded Social comments